Briefing drone pour Pontcharra

Rechercher une autre localisation

Conditions de vol :


Nous sommes le : Lundi 28 septembre 2020
Il est 21:10 UTC (23:10 LT)

Lever de soleil : 05:04 UTC (07:04 LT)
Coucher de soleil : 17:48 UTC (19:48 LT)

Météo

L'essentiel des conditions de vol

VIGILANCE MÉTÉO FRANCE - Isère (38)
Pas de vigilances particulieres
METAR de LFLB
LFLB 282100Z AUTO 05002KT 9999 -DZ FEW013 BKN043 OVC050 12/11 Q1019

Date d'émission: 28/09/2020
Heure d'émission: 21:00 UTC
Vent: 050° pour 2 KT (4 km/h)
Visibilité horizontale: > 10 km
Plafond :
- Peu de nuages à 1300ft (396m)
- Nuages morcelés à 4300ft (1311m)
- Couvert à 5000ft (1524m)
Température: 12 °C
Point de rosée: 11 °C
Humidité: 94%
Pression (QNH): 1019 hPa
Conditions: Faible Bruine
TAF de LFLB
LFLB 281913Z 2819/2912 CNL

Conditions prévues :

Heure d'émission : Bulletin éffectué le 28 à 19:00 UTC
Prévision : Valide du 28 a 19:00 UTC au 29 a 12:00 UTC
Nuages : à 0ft (0 m)
WEBCAM POUR PONTCHARRA

Réglementation

Voler en sécurité

CARTES AERONAUTIQUE 1/500.000
CARTES VAC (LFLB)
SUP AIP




Chargement des AIP...
NOTAM (PONTCHARRA + Terrain à proximité / FIR )




Chargement des NOTAMS...
CONTACT PREFECTURE 38


Avertissement : Les données mises à disposition sont indicatives. Oxygène Drone ne pourra être tenu responsable de dégâts causés aux biens et aux personnes.